Time;durP1;ratioP1;P1;durP2;ratioP2;P2;SDS_P1;SDS_P2;PMS_P1;PMS_P2;Temp;Humidity;BMP_temperature;BMP_pressure;BME280_temperature;BME280_humidity;BME280_pressure;Samples;Min_cycle;Max_cycle;Signal;HPM_P1;HPM_P2
2023/12/25 00:00:51;;;;;;;0.20;0.20;;;11.40;90.60;;;;;;5068089;28;20763;-72
2023/12/25 00:03:16;;;;;;;4.15;2.20;;;11.40;90.50;;;;;;5064021;28;20047;-72
2023/12/25 00:05:42;;;;;;;0.00;0.00;;;11.40;90.30;;;;;;5068264;28;20040;-72
2023/12/25 00:08:07;;;;;;;0.10;0.10;;;11.50;90.20;;;;;;5066179;28;20189;-72
2023/12/25 00:10:33;;;;;;;2.50;1.10;;;11.40;90.10;;;;;;5050219;28;20155;-72
2023/12/25 00:12:59;;;;;;;0.00;0.00;;;11.50;89.80;;;;;;5065859;28;20525;-72
2023/12/25 00:15:24;;;;;;;0.00;0.00;;;11.50;89.30;;;;;;5066561;28;20455;-72
2023/12/25 00:17:50;;;;;;;15.70;0.85;;;11.50;89.00;;;;;;5061652;28;20037;-72
2023/12/25 00:20:16;;;;;;;0.10;0.10;;;11.50;88.40;;;;;;5061821;28;20084;-71
2023/12/25 00:22:41;;;;;;;0.00;0.00;;;11.40;88.00;;;;;;5067014;28;20106;-71
2023/12/25 00:25:07;;;;;;;0.00;0.00;;;11.40;88.00;;;;;;5050857;28;20076;-71
2023/12/25 00:27:32;;;;;;;0.08;0.08;;;11.30;87.90;;;;;;5049070;28;20063;-71
2023/12/25 00:29:58;;;;;;;0.08;0.08;;;11.40;87.70;;;;;;5067260;28;20094;-71
2023/12/25 00:32:24;;;;;;;0.00;0.00;;;11.30;87.60;;;;;;5063277;28;20581;-71
2023/12/25 00:34:49;;;;;;;0.90;0.85;;;11.30;87.60;;;;;;5067705;28;20044;-72
2023/12/25 00:37:16;;;;;;;0.00;0.00;;;11.30;87.50;;;;;;5056765;28;20086;-72
2023/12/25 00:39:42;;;;;;;4.30;2.17;;;11.30;87.50;;;;;;5050420;28;20045;-72
2023/12/25 00:49:25;;;;;;;0.00;0.00;;;11.30;86.70;;;;;;5059342;28;20106;-71
2023/12/25 00:51:50;;;;;;;9.15;0.98;;;11.10;86.80;;;;;;5066468;28;20044;-72
2023/12/25 00:54:31;;;;;;;0.00;0.00;;;11.20;87.00;;;;;;5062998;28;20072;-71
2023/12/25 00:57:06;;;;;;;2.53;0.70;;;11.10;87.10;;;;;;5061751;28;20044;-72
2023/12/25 00:59:31;;;;;;;0.00;0.00;;;11.10;87.20;;;;;;5062778;28;20112;-72
2023/12/25 01:01:57;;;;;;;0.00;0.00;;;11.10;86.80;;;;;;5068047;28;20052;-71
2023/12/25 01:04:23;;;;;;;0.00;0.00;;;11.20;86.10;;;;;;5062223;28;21360;-71
2023/12/25 01:06:48;;;;;;;0.00;0.00;;;11.20;85.90;;;;;;5067746;28;20037;-71
2023/12/25 01:09:14;;;;;;;0.00;0.00;;;11.10;86.20;;;;;;5067765;28;20403;-71
2023/12/25 01:11:43;;;;;;;1.88;0.98;;;11.10;86.30;;;;;;5066327;28;20045;-71
2023/12/25 01:14:09;;;;;;;0.10;0.10;;;11.10;86.50;;;;;;5048147;28;20119;-71
2023/12/25 01:16:36;;;;;;;0.00;0.00;;;11.20;86.40;;;;;;5065618;28;20045;-71
2023/12/25 01:19:02;;;;;;;0.00;0.00;;;11.10;86.50;;;;;;5046897;28;20053;-71
2023/12/25 01:21:27;;;;;;;0.05;0.05;;;11.10;86.70;;;;;;5048936;28;20051;-72
2023/12/25 01:23:53;;;;;;;0.00;0.00;;;11.10;86.90;;;;;;5049149;28;20044;-72
2023/12/25 01:26:19;;;;;;;0.00;0.00;;;11.00;87.10;;;;;;5048427;28;20040;-72
2023/12/25 01:28:45;;;;;;;0.00;0.00;;;11.00;87.20;;;;;;5066934;28;20123;-72
2023/12/25 01:31:11;;;;;;;0.90;0.80;;;11.00;87.20;;;;;;5048307;28;20444;-71
2023/12/25 01:33:36;;;;;;;0.57;0.57;;;11.00;87.10;;;;;;5064555;28;20067;-71
2023/12/25 01:36:02;;;;;;;0.38;0.38;;;10.80;86.90;;;;;;5061674;28;20048;-71
2023/12/25 01:38:28;;;;;;;0.10;0.10;;;10.90;86.90;;;;;;5048691;28;20151;-71
2023/12/25 01:40:54;;;;;;;0.00;0.00;;;10.90;86.30;;;;;;5064864;28;20132;-71
2023/12/25 01:43:19;;;;;;;0.00;0.00;;;10.90;86.60;;;;;;5066898;28;20494;-71
2023/12/25 01:45:45;;;;;;;0.10;0.10;;;10.90;86.70;;;;;;5065288;28;20055;-72
2023/12/25 01:48:12;;;;;;;0.68;0.63;;;10.80;86.80;;;;;;5066915;28;20039;-72
2023/12/25 01:50:39;;;;;;;0.00;0.00;;;10.80;87.00;;;;;;5057827;28;20382;-72
2023/12/25 01:53:05;;;;;;;0.00;0.00;;;10.80;87.10;;;;;;5039488;28;20072;-72
2023/12/25 01:55:31;;;;;;;0.10;0.10;;;10.80;87.50;;;;;;5061952;28;20044;-72
2023/12/25 01:57:57;;;;;;;0.05;0.05;;;10.70;87.90;;;;;;5060059;28;20044;-72
2023/12/25 02:00:22;;;;;;;0.45;0.45;;;10.70;88.60;;;;;;5048505;28;20088;-73
2023/12/25 02:06:36;;;;;;;0.00;0.00;;;10.80;89.00;;;;;;5013723;28;20048;-72
2023/12/25 02:09:03;;;;;;;0.52;0.52;;;10.80;89.30;;;;;;5024312;28;20049;-71
2023/12/25 02:11:29;;;;;;;0.00;0.00;;;10.70;89.50;;;;;;5021117;28;20058;-72
2023/12/25 02:13:57;;;;;;;0.85;0.85;;;10.80;89.60;;;;;;5022060;28;20046;-72
2023/12/25 02:16:24;;;;;;;0.00;0.00;;;10.80;89.50;;;;;;5022457;28;20049;-72
2023/12/25 02:18:51;;;;;;;3.30;3.00;;;10.90;89.60;;;;;;5024576;28;20764;-71
2023/12/25 02:21:16;;;;;;;1.23;1.20;;;10.90;89.20;;;;;;5028036;28;20045;-71
2023/12/25 02:23:44;;;;;;;0.00;0.00;;;10.80;89.10;;;;;;5009398;28;20060;-71
2023/12/25 02:26:11;;;;;;;0.00;0.00;;;10.80;88.80;;;;;;5007627;28;20623;-72
2023/12/25 02:28:36;;;;;;;0.00;0.00;;;10.90;88.50;;;;;;5027655;28;20053;-72
2023/12/25 02:31:03;;;;;;;0.10;0.10;;;10.80;88.60;;;;;;4997885;28;20683;-72
2023/12/25 02:33:29;;;;;;;0.00;0.00;;;10.80;88.50;;;;;;5020802;28;20085;-72
2023/12/25 02:35:55;;;;;;;0.00;0.00;;;10.80;88.30;;;;;;5001809;28;20076;-72
2023/12/25 02:38:20;;;;;;;0.45;0.45;;;10.70;88.00;;;;;;5009846;28;20061;-71
2023/12/25 02:40:46;;;;;;;0.00;0.00;;;10.80;87.70;;;;;;5024885;28;20463;-72
2023/12/25 02:43:12;;;;;;;0.00;0.00;;;10.80;87.40;;;;;;5018199;28;20053;-71
2023/12/25 02:45:37;;;;;;;0.10;0.10;;;10.80;87.30;;;;;;5027228;28;20081;-71
2023/12/25 02:48:03;;;;;;;8.38;2.67;;;10.90;86.90;;;;;;5026448;28;20069;-72
2023/12/25 02:50:29;;;;;;;0.00;0.00;;;10.90;86.70;;;;;;5026693;28;20058;-72
2023/12/25 02:52:55;;;;;;;12.13;4.95;;;10.90;86.50;;;;;;5027533;28;20459;-71
2023/12/25 02:55:21;;;;;;;2.45;1.65;;;10.90;86.50;;;;;;5025481;28;20105;-71
2023/12/25 02:57:47;;;;;;;0.00;0.00;;;10.80;86.20;;;;;;5026328;28;20745;-71
2023/12/25 03:00:14;;;;;;;0.00;0.00;;;10.90;86.40;;;;;;5027553;28;20102;-72
2023/12/25 03:02:39;;;;;;;3.15;1.48;;;10.90;86.10;;;;;;5034499;28;20402;-72
2023/12/25 03:05:05;;;;;;;0.00;0.00;;;11.00;85.90;;;;;;5065260;28;20047;-71
2023/12/25 03:07:31;;;;;;;0.00;0.00;;;11.00;85.50;;;;;;5067706;28;20043;-72
2023/12/25 03:09:57;;;;;;;0.05;0.05;;;11.00;85.10;;;;;;5052334;28;20111;-71
2023/12/25 03:12:22;;;;;;;0.00;0.00;;;11.00;84.80;;;;;;5067699;28;20823;-71
2023/12/25 03:14:48;;;;;;;0.00;0.00;;;11.00;84.60;;;;;;5046148;28;20033;-72
2023/12/25 03:17:13;;;;;;;0.00;0.00;;;11.00;84.50;;;;;;5050976;28;20036;-72
2023/12/25 03:19:39;;;;;;;0.10;0.10;;;11.10;84.50;;;;;;5068315;28;20110;-71
2023/12/25 03:22:05;;;;;;;1.25;0.85;;;11.00;84.80;;;;;;5058879;28;20047;-72
2023/12/25 03:24:32;;;;;;;0.75;0.75;;;11.00;84.80;;;;;;5068076;28;20060;-72
2023/12/25 03:26:57;;;;;;;0.00;0.00;;;10.90;85.10;;;;;;5066677;28;20123;-72
2023/12/25 03:29:23;;;;;;;0.52;0.52;;;10.90;85.50;;;;;;5068340;28;20201;-71
2023/12/25 03:31:48;;;;;;;0.10;0.10;;;10.90;85.70;;;;;;5067740;28;20029;-72
2023/12/25 03:34:18;;;;;;;0.50;0.50;;;10.90;86.20;;;;;;5049858;28;20064;-71
2023/12/25 03:36:44;;;;;;;0.00;0.00;;;10.90;86.40;;;;;;5068497;28;20056;-72
2023/12/25 03:39:10;;;;;;;0.00;0.00;;;10.80;86.60;;;;;;5067273;28;20137;-71
2023/12/25 03:41:35;;;;;;;0.00;0.00;;;10.80;86.80;;;;;;5067633;28;20072;-72
2023/12/25 03:44:01;;;;;;;0.00;0.00;;;10.80;86.90;;;;;;5050249;28;20855;-72
2023/12/25 03:46:27;;;;;;;0.00;0.00;;;10.80;87.00;;;;;;5049963;28;20103;-71
2023/12/25 03:48:52;;;;;;;0.00;0.00;;;10.70;86.90;;;;;;5065520;28;20045;-71
2023/12/25 03:51:18;;;;;;;0.00;0.00;;;10.70;86.90;;;;;;5066690;28;20616;-71
2023/12/25 03:53:43;;;;;;;0.00;0.00;;;10.80;86.90;;;;;;5056205;28;20078;-72
2023/12/25 03:56:11;;;;;;;0.00;0.00;;;10.80;86.80;;;;;;5066882;28;20049;-71
2023/12/25 03:58:37;;;;;;;0.00;0.00;;;10.80;86.70;;;;;;5067153;28;20119;-72
2023/12/25 04:01:03;;;;;;;0.00;0.00;;;10.80;86.50;;;;;;5066089;28;20999;-72
2023/12/25 04:03:28;;;;;;;0.00;0.00;;;10.80;86.50;;;;;;5048649;28;20044;-72
2023/12/25 04:05:54;;;;;;;0.00;0.00;;;10.80;86.60;;;;;;5054983;28;20106;-72
2023/12/25 04:08:19;;;;;;;0.00;0.00;;;10.80;86.60;;;;;;5046483;28;20487;-72
2023/12/25 04:10:45;;;;;;;0.00;0.00;;;10.80;86.70;;;;;;5054319;28;20065;-72
2023/12/25 04:13:11;;;;;;;0.30;0.30;;;10.80;86.70;;;;;;5061476;28;20048;-71
2023/12/25 04:15:36;;;;;;;0.00;0.00;;;10.70;87.20;;;;;;5061229;28;20057;-72
2023/12/25 04:18:02;;;;;;;0.00;0.00;;;10.60;87.30;;;;;;5049084;28;20044;-72
2023/12/25 04:20:27;;;;;;;0.47;0.47;;;10.60;87.50;;;;;;5049082;28;20328;-72
2023/12/25 04:22:53;;;;;;;0.00;0.00;;;10.70;87.40;;;;;;5065944;28;20048;-71
2023/12/25 04:25:19;;;;;;;0.00;0.00;;;10.70;87.40;;;;;;5066910;28;20121;-71
2023/12/25 04:27:44;;;;;;;0.00;0.00;;;10.60;87.40;;;;;;5066857;28;20029;-71
2023/12/25 04:30:10;;;;;;;0.88;0.80;;;10.60;87.70;;;;;;5053539;28;20055;-72
2023/12/25 04:32:36;;;;;;;0.05;0.05;;;10.60;87.80;;;;;;5061813;28;20512;-72
2023/12/25 04:35:01;;;;;;;14.02;3.75;;;10.60;87.80;;;;;;5066558;28;20120;-72
2023/12/25 04:37:27;;;;;;;0.30;0.30;;;10.60;87.90;;;;;;5056433;28;20037;-72
2023/12/25 04:39:53;;;;;;;0.00;0.00;;;10.60;88.20;;;;;;5048389;28;20101;-71
2023/12/25 04:42:18;;;;;;;0.20;0.20;;;10.60;88.20;;;;;;5066235;28;20044;-72
2023/12/25 04:44:44;;;;;;;0.00;0.00;;;10.60;88.20;;;;;;5066689;28;20494;-71
2023/12/25 04:47:10;;;;;;;0.28;0.20;;;10.60;88.30;;;;;;5063728;28;20111;-71
2023/12/25 04:49:35;;;;;;;0.57;0.57;;;10.60;88.20;;;;;;5048191;28;20148;-72
2023/12/25 04:52:01;;;;;;;0.50;0.50;;;10.60;88.30;;;;;;5073198;28;20056;-73
2023/12/25 04:54:26;;;;;;;0.00;0.00;;;10.60;88.30;;;;;;5057994;28;20044;-72
2023/12/25 04:56:56;;;;;;;0.10;0.10;;;10.60;88.40;;;;;;5046115;28;20040;-71
2023/12/25 04:59:22;;;;;;;0.25;0.25;;;10.60;88.60;;;;;;5065082;28;20052;-71
2023/12/25 05:01:51;;;;;;;0.43;0.43;;;10.60;88.50;;;;;;5061291;28;20138;-71
2023/12/25 05:04:17;;;;;;;0.00;0.00;;;10.60;88.70;;;;;;5052180;28;20103;-71
2023/12/25 05:06:42;;;;;;;0.00;0.00;;;10.60;88.90;;;;;;5057089;28;20507;-70
2023/12/25 05:09:08;;;;;;;0.00;0.00;;;10.50;89.00;;;;;;5047316;28;20858;-71
2023/12/25 05:11:34;;;;;;;0.00;0.00;;;10.50;89.10;;;;;;5056881;28;20044;-70
2023/12/25 05:14:00;;;;;;;0.00;0.00;;;10.50;89.00;;;;;;5061033;28;20131;-70
2023/12/25 05:16:26;;;;;;;2.22;1.55;;;10.50;89.00;;;;;;5065319;28;20047;-70
2023/12/25 05:18:51;;;;;;;0.00;0.00;;;10.50;89.00;;;;;;5047249;28;20032;-70
2023/12/25 05:21:17;;;;;;;1.02;1.00;;;10.60;88.70;;;;;;5065475;28;20084;-70
2023/12/25 05:23:43;;;;;;;3.75;0.90;;;10.60;88.90;;;;;;5065946;28;20772;-71
2023/12/25 05:26:09;;;;;;;0.00;0.00;;;10.50;88.90;;;;;;5065386;28;20064;-70
2023/12/25 05:28:35;;;;;;;0.00;0.00;;;10.50;88.90;;;;;;5046398;28;20051;-70
2023/12/25 05:31:01;;;;;;;0.00;0.00;;;10.60;88.60;;;;;;5046977;28;20653;-71
2023/12/25 05:33:26;;;;;;;0.00;0.00;;;10.50;88.40;;;;;;5061980;28;20055;-70
2023/12/25 05:35:52;;;;;;;0.45;0.43;;;10.50;88.70;;;;;;5060872;28;20049;-70
2023/12/25 05:38:18;;;;;;;0.00;0.00;;;10.50;88.40;;;;;;5065827;28;20074;-70
2023/12/25 05:40:43;;;;;;;0.00;0.00;;;10.50;88.30;;;;;;5064842;28;20058;-70
2023/12/25 05:43:10;;;;;;;0.00;0.00;;;10.50;88.30;;;;;;5065901;28;20045;-70
2023/12/25 05:45:38;;;;;;;0.00;0.00;;;10.40;88.30;;;;;;5049202;28;20845;-70
2023/12/25 05:48:04;;;;;;;0.00;0.00;;;10.40;88.40;;;;;;5063989;28;20052;-70
2023/12/25 05:50:29;;;;;;;0.10;0.10;;;10.40;88.20;;;;;;5036102;28;20046;-70
2023/12/25 05:52:55;;;;;;;0.00;0.00;;;10.40;88.40;;;;;;5029334;28;20114;-70
2023/12/25 05:55:21;;;;;;;0.00;0.00;;;10.30;88.50;;;;;;5029864;28;20072;-70
2023/12/25 05:57:47;;;;;;;0.00;0.00;;;10.30;88.60;;;;;;5029920;28;20054;-70
2023/12/25 06:00:13;;;;;;;0.00;0.00;;;10.30;88.70;;;;;;5029731;28;20054;-70
2023/12/25 06:02:39;;;;;;;0.00;0.00;;;10.30;88.80;;;;;;5028474;28;20756;-70
2023/12/25 06:05:05;;;;;;;0.00;0.00;;;10.30;88.90;;;;;;5028928;28;20065;-71
2023/12/25 06:07:30;;;;;;;0.00;0.00;;;10.30;88.90;;;;;;5029919;28;20056;-70
2023/12/25 06:09:56;;;;;;;0.32;0.32;;;10.20;88.90;;;;;;5029894;28;20717;-71
2023/12/25 06:12:21;;;;;;;0.00;0.00;;;10.40;88.80;;;;;;5028978;28;20037;-71
2023/12/25 06:14:47;;;;;;;0.00;0.00;;;10.30;88.60;;;;;;5027746;28;20042;-71
2023/12/25 06:17:13;;;;;;;0.00;0.00;;;10.20;88.60;;;;;;5029185;28;20046;-71
2023/12/25 06:19:38;;;;;;;0.20;0.20;;;10.30;88.60;;;;;;5026816;28;20037;-70
2023/12/25 06:22:04;;;;;;;0.00;0.00;;;10.30;88.70;;;;;;5029151;28;20470;-71
2023/12/25 06:24:29;;;;;;;0.00;0.00;;;10.20;88.70;;;;;;5028408;28;20045;-71
2023/12/25 06:26:55;;;;;;;0.00;0.00;;;10.20;88.60;;;;;;5028448;28;20053;-71
2023/12/25 06:29:20;;;;;;;0.00;0.00;;;10.20;88.80;;;;;;5045052;28;20558;-71
2023/12/25 06:31:47;;;;;;;0.45;0.45;;;10.10;88.70;;;;;;5028956;28;20092;-71
2023/12/25 06:34:12;;;;;;;0.00;0.00;;;10.10;88.90;;;;;;5028685;28;20103;-71
2023/12/25 06:36:38;;;;;;;0.00;0.00;;;10.10;88.70;;;;;;5019612;28;20408;-71
2023/12/25 06:39:04;;;;;;;0.03;0.03;;;10.10;88.90;;;;;;5030074;28;20119;-71
2023/12/25 06:41:29;;;;;;;0.00;0.00;;;10.00;89.00;;;;;;5016654;28;20037;-71
2023/12/25 06:43:55;;;;;;;0.00;0.00;;;10.00;89.10;;;;;;5023402;28;20072;-71
2023/12/25 06:46:20;;;;;;;1.85;1.70;;;10.10;89.30;;;;;;5021778;28;20037;-70
2023/12/25 06:48:46;;;;;;;0.10;0.10;;;10.00;89.30;;;;;;5028204;28;20042;-71
2023/12/25 06:51:11;;;;;;;0.00;0.00;;;10.00;89.20;;;;;;5056206;28;20048;-70
2023/12/25 06:53:37;;;;;;;0.00;0.00;;;10.00;89.20;;;;;;5066244;28;20056;-70
2023/12/25 06:56:03;;;;;;;0.00;0.00;;;10.00;89.00;;;;;;5066579;28;20048;-70
2023/12/25 06:58:29;;;;;;;0.10;0.10;;;10.00;89.10;;;;;;5066467;28;20045;-71
2023/12/25 07:00:55;;;;;;;0.20;0.20;;;9.90;89.10;;;;;;5066399;28;20106;-70
2023/12/25 07:03:20;;;;;;;0.00;0.00;;;9.90;89.10;;;;;;5068388;28;20445;-69
2023/12/25 07:05:48;;;;;;;0.00;0.00;;;9.90;89.20;;;;;;5047980;28;20056;-70
2023/12/25 07:08:14;;;;;;;0.00;0.00;;;9.90;89.30;;;;;;5066090;28;20080;-70
2023/12/25 07:10:40;;;;;;;4.57;1.98;;;10.00;89.30;;;;;;5049264;28;20944;-70
2023/12/25 07:13:05;;;;;;;0.08;0.08;;;9.90;89.00;;;;;;5065744;28;20044;-70
2023/12/25 07:15:33;;;;;;;0.00;0.00;;;9.90;89.00;;;;;;5063595;28;20127;-70
2023/12/25 07:17:59;;;;;;;0.00;0.00;;;9.90;88.90;;;;;;5061229;28;20056;-70
2023/12/25 07:20:25;;;;;;;0.82;0.80;;;9.90;88.90;;;;;;5067251;28;20048;-70
2023/12/25 07:22:50;;;;;;;0.00;0.00;;;9.90;88.80;;;;;;5065569;28;20040;-71
2023/12/25 07:25:16;;;;;;;0.00;0.00;;;9.90;88.90;;;;;;5063229;28;20063;-70
2023/12/25 07:27:42;;;;;;;0.00;0.00;;;9.90;88.50;;;;;;5064937;28;20047;-71
2023/12/25 07:30:08;;;;;;;0.00;0.00;;;9.90;88.60;;;;;;5067037;28;20091;-71
2023/12/25 07:32:33;;;;;;;0.00;0.00;;;9.90;88.60;;;;;;5065990;28;20053;-71
2023/12/25 07:34:59;;;;;;;0.00;0.00;;;9.90;88.60;;;;;;5067583;28;20052;-71
2023/12/25 07:37:24;;;;;;;0.00;0.00;;;9.80;88.70;;;;;;5065997;28;20044;-70
2023/12/25 07:39:50;;;;;;;0.00;0.00;;;9.90;88.60;;;;;;5052383;28;20048;-70
2023/12/25 07:42:15;;;;;;;0.00;0.00;;;9.80;88.40;;;;;;5032827;28;20471;-70
2023/12/25 07:44:42;;;;;;;0.10;0.10;;;9.90;88.60;;;;;;5065516;28;20056;-70
2023/12/25 07:47:07;;;;;;;0.20;0.20;;;9.90;88.60;;;;;;5067130;28;20045;-70
2023/12/25 07:49:33;;;;;;;0.00;0.00;;;9.80;88.50;;;;;;5041176;28;20059;-72
2023/12/25 07:52:00;;;;;;;0.00;0.00;;;9.70;88.80;;;;;;5064355;28;20114;-72
2023/12/25 07:54:25;;;;;;;0.00;0.00;;;9.70;88.80;;;;;;5056473;28;20095;-72
2023/12/25 07:56:51;;;;;;;0.00;0.00;;;9.70;88.90;;;;;;5066445;28;20080;-73
2023/12/25 07:59:20;;;;;;;0.00;0.00;;;9.70;89.00;;;;;;5048252;28;20139;-70
2023/12/25 08:01:46;;;;;;;0.00;0.00;;;9.70;88.80;;;;;;5049004;28;20600;-73
2023/12/25 08:04:11;;;;;;;0.00;0.00;;;9.70;88.90;;;;;;5059991;28;20049;-70
2023/12/25 08:06:37;;;;;;;0.00;0.00;;;9.70;88.80;;;;;;5066561;28;20044;-71
2023/12/25 08:09:03;;;;;;;0.00;0.00;;;9.70;88.90;;;;;;5065770;28;20036;-71
2023/12/25 08:11:29;;;;;;;0.00;0.00;;;9.70;88.90;;;;;;5064952;28;20044;-72
2023/12/25 08:13:54;;;;;;;0.00;0.00;;;9.70;89.00;;;;;;5064063;28;20051;-71
2023/12/25 08:16:20;;;;;;;0.00;0.00;;;9.70;88.90;;;;;;5065644;28;20040;-71
2023/12/25 08:18:46;;;;;;;0.10;0.10;;;9.70;89.00;;;;;;5049045;28;20052;-70
2023/12/25 08:21:12;;;;;;;0.00;0.00;;;9.70;89.10;;;;;;5066787;28;20059;-70
2023/12/25 08:23:40;;;;;;;0.00;0.00;;;9.60;89.20;;;;;;5065173;28;20110;-71
2023/12/25 08:26:05;;;;;;;0.00;0.00;;;9.60;89.20;;;;;;5047372;28;20052;-71
2023/12/25 08:28:31;;;;;;;0.00;0.00;;;9.60;89.20;;;;;;5063830;28;20041;-72
2023/12/25 08:30:56;;;;;;;0.35;0.35;;;9.60;89.30;;;;;;5061114;28;20418;-71
2023/12/25 08:33:22;;;;;;;0.08;0.08;;;9.60;89.50;;;;;;5064510;28;20123;-70
2023/12/25 08:35:48;;;;;;;0.10;0.10;;;9.60;89.40;;;;;;5065034;28;20049;-71
2023/12/25 08:38:13;;;;;;;0.10;0.10;;;9.60;89.60;;;;;;5065800;28;20612;-71
2023/12/25 08:40:39;;;;;;;0.03;0.03;;;9.60;89.60;;;;;;5064869;28;20045;-71
2023/12/25 08:43:05;;;;;;;0.00;0.00;;;9.60;89.60;;;;;;5064448;28;20044;-70
2023/12/25 08:45:31;;;;;;;0.00;0.00;;;9.60;89.70;;;;;;5063792;28;20056;-72
2023/12/25 08:47:56;;;;;;;0.00;0.00;;;9.60;89.70;;;;;;5060651;28;20044;-70
2023/12/25 08:50:22;;;;;;;0.05;0.05;;;9.60;89.70;;;;;;5064326;28;20060;-71
2023/12/25 08:52:48;;;;;;;0.15;0.15;;;9.60;89.70;;;;;;5045635;28;20083;-71
2023/12/25 08:55:13;;;;;;;0.00;0.00;;;9.60;89.70;;;;;;5057652;28;20123;-71
2023/12/25 08:57:39;;;;;;;0.00;0.00;;;9.50;89.30;;;;;;5060656;28;20384;-71
2023/12/25 09:00:06;;;;;;;0.00;0.00;;;9.50;89.20;;;;;;5044669;28;20640;-72
2023/12/25 09:02:32;;;;;;;0.00;0.00;;;9.40;89.00;;;;;;5063215;28;20060;-72
2023/12/25 09:04:57;;;;;;;0.00;0.00;;;9.40;88.80;;;;;;5062678;28;20405;-72
2023/12/25 09:07:23;;;;;;;0.00;0.00;;;9.30;88.90;;;;;;5064605;28;20048;-72
2023/12/25 09:09:49;;;;;;;0.00;0.00;;;9.40;88.70;;;;;;5060687;28;20394;-71
2023/12/25 09:12:14;;;;;;;0.00;0.00;;;9.30;88.60;;;;;;5064456;28;20035;-71
2023/12/25 09:14:40;;;;;;;0.00;0.00;;;9.40;88.50;;;;;;5061877;28;20097;-73
2023/12/25 09:17:06;;;;;;;0.10;0.10;;;9.30;88.60;;;;;;5065593;28;20513;-72
2023/12/25 09:19:31;;;;;;;0.10;0.10;;;9.40;89.60;;;;;;5045494;28;20073;-72
2023/12/25 09:21:58;;;;;;;0.00;0.00;;;9.40;88.70;;;;;;5066223;28;20095;-72
2023/12/25 09:24:24;;;;;;;0.00;0.00;;;9.50;88.70;;;;;;5061047;28;20072;-72
2023/12/25 09:26:51;;;;;;;0.00;0.00;;;9.30;88.50;;;;;;5047451;28;20483;-73
2023/12/25 09:29:17;;;;;;;0.00;0.00;;;9.40;88.50;;;;;;5052035;28;20162;-70
2023/12/25 09:31:42;;;;;;;0.00;0.00;;;9.40;88.60;;;;;;5047793;28;20068;-71
2023/12/25 09:34:08;;;;;;;0.00;0.00;;;9.40;88.70;;;;;;5057514;28;20055;-71
2023/12/25 09:36:33;;;;;;;0.00;0.00;;;9.30;88.70;;;;;;5048162;28;20128;-72
2023/12/25 09:38:59;;;;;;;0.00;0.00;;;9.30;88.60;;;;;;5058199;28;20416;-71
2023/12/25 09:41:25;;;;;;;0.00;0.00;;;9.30;88.90;;;;;;5066015;28;20093;-71
2023/12/25 09:43:54;;;;;;;0.00;0.00;;;9.30;88.90;;;;;;5067161;28;20563;-70
2023/12/25 09:46:20;;;;;;;0.00;0.00;;;9.40;88.90;;;;;;5066746;28;20087;-70
2023/12/25 09:48:47;;;;;;;0.00;0.00;;;9.40;88.90;;;;;;5067473;28;20041;-69
2023/12/25 09:51:16;;;;;;;0.05;0.05;;;9.60;89.50;;;;;;5061546;28;20113;-70
2023/12/25 09:53:43;;;;;;;0.00;0.00;;;9.60;89.20;;;;;;5061983;28;20040;-70
2023/12/25 09:56:11;;;;;;;0.00;0.00;;;9.60;89.00;;;;;;5067561;28;20040;-70
2023/12/25 09:58:38;;;;;;;0.00;0.00;;;9.70;89.00;;;;;;5061519;28;20033;-70
2023/12/25 10:01:04;;;;;;;0.47;0.47;;;9.70;88.90;;;;;;5067376;28;20128;-71
2023/12/25 10:03:33;;;;;;;0.00;0.00;;;9.70;89.00;;;;;;5062267;28;20127;-70
2023/12/25 10:05:58;;;;;;;0.00;0.00;;;9.70;88.90;;;;;;5065973;28;20060;-70
2023/12/25 10:08:24;;;;;;;0.35;0.35;;;9.70;89.00;;;;;;5062694;28;20067;-71
2023/12/25 10:10:54;;;;;;;0.00;0.00;;;9.70;88.90;;;;;;5064737;28;20389;-70
2023/12/25 10:13:22;;;;;;;0.00;0.00;;;9.70;88.80;;;;;;5067081;28;20037;-71
2023/12/25 10:15:48;;;;;;;0.00;0.00;;;9.70;88.90;;;;;;5048768;28;20063;-70
2023/12/25 10:18:13;;;;;;;0.00;0.00;;;9.70;88.90;;;;;;5049066;28;20522;-70
2023/12/25 10:20:39;;;;;;;0.00;0.00;;;9.80;89.00;;;;;;5064287;28;20041;-70
2023/12/25 10:23:12;;;;;;;0.00;0.00;;;9.80;89.00;;;;;;5058914;28;20068;-71
2023/12/25 10:25:44;;;;;;;0.00;0.00;;;9.90;89.00;;;;;;5046126;28;20044;-70
2023/12/25 10:28:11;;;;;;;0.00;0.00;;;9.90;89.00;;;;;;5066912;28;20102;-70
2023/12/25 10:30:37;;;;;;;0.00;0.00;;;9.90;89.10;;;;;;5066586;28;20051;-70
2023/12/25 10:33:14;;;;;;;0.00;0.00;;;9.90;89.10;;;;;;5066926;28;20039;-71
2023/12/25 10:35:40;;;;;;;0.00;0.00;;;10.00;89.20;;;;;;5048204;28;20049;-70
2023/12/25 10:38:07;;;;;;;0.00;0.00;;;10.00;89.20;;;;;;5068052;28;20041;-70
2023/12/25 10:40:36;;;;;;;1.65;1.10;;;10.00;89.30;;;;;;5070760;28;20076;-70
2023/12/25 10:43:01;;;;;;;0.00;0.00;;;10.00;89.50;;;;;;5068337;28;20098;-70
2023/12/25 10:45:30;;;;;;;0.10;0.10;;;10.00;89.60;;;;;;5053607;28;20044;-70
2023/12/25 10:48:03;;;;;;;0.00;0.00;;;10.10;89.70;;;;;;5068778;28;20514;-71
2023/12/25 10:50:36;;;;;;;0.00;0.00;;;10.10;89.80;;;;;;5063114;28;20082;-71
2023/12/25 10:53:03;;;;;;;0.10;0.10;;;10.10;89.90;;;;;;5067000;28;20370;-71
2023/12/25 10:55:41;;;;;;;0.10;0.10;;;10.20;89.80;;;;;;5062541;28;20044;-69
2023/12/25 10:58:16;;;;;;;0.00;0.00;;;10.10;89.70;;;;;;5064597;28;20506;-69
2023/12/25 11:00:51;;;;;;;0.05;0.05;;;10.20;89.80;;;;;;5063187;28;20044;-70
2023/12/25 11:03:17;;;;;;;0.00;0.00;;;10.20;89.70;;;;;;5049900;28;20123;-69
2023/12/25 11:05:44;;;;;;;0.00;0.00;;;10.20;89.80;;;;;;5063595;28;20047;-69
2023/12/25 11:08:12;;;;;;;0.57;0.57;;;10.20;89.90;;;;;;5066500;28;20120;-69
2023/12/25 11:10:39;;;;;;;0.10;0.10;;;10.10;89.90;;;;;;5066553;28;20043;-70
2023/12/25 11:13:06;;;;;;;0.00;0.00;;;10.20;89.90;;;;;;5045670;28;20521;-70
2023/12/25 11:15:32;;;;;;;0.00;0.00;;;10.20;90.00;;;;;;5063259;28;20055;-70
2023/12/25 11:17:59;;;;;;;0.00;0.00;;;10.20;90.00;;;;;;5063020;28;20040;-70
2023/12/25 11:20:25;;;;;;;0.00;0.00;;;10.30;90.10;;;;;;5062262;28;20036;-70
2023/12/25 11:22:57;;;;;;;0.00;0.00;;;10.30;90.10;;;;;;5067739;28;20040;-70
2023/12/25 11:25:24;;;;;;;0.00;0.00;;;10.30;90.10;;;;;;5049532;28;20709;-70
2023/12/25 11:27:55;;;;;;;0.00;0.00;;;10.30;90.10;;;;;;5067505;28;20061;-70
2023/12/25 11:30:25;;;;;;;0.00;0.00;;;10.40;90.30;;;;;;5062936;28;20051;-70
2023/12/25 11:32:51;;;;;;;0.00;0.00;;;10.30;90.40;;;;;;5064980;28;20033;-70
2023/12/25 11:35:28;;;;;;;0.00;0.00;;;10.30;90.60;;;;;;5063736;28;20041;-70
2023/12/25 11:38:19;;;;;;;0.00;0.00;;;10.40;90.60;;;;;;5063691;28;20048;-70
2023/12/25 11:40:45;;;;;;;0.00;0.00;;;10.40;90.60;;;;;;5059036;28;20828;-71
2023/12/25 11:43:14;;;;;;;0.00;0.00;;;10.40;90.60;;;;;;5065264;28;20076;-71
2023/12/25 11:45:44;;;;;;;0.00;0.00;;;10.30;90.80;;;;;;5064586;28;20155;-71
2023/12/25 11:48:11;;;;;;;0.10;0.10;;;10.40;90.90;;;;;;5058847;28;20726;-71
2023/12/25 11:50:37;;;;;;;0.00;0.00;;;10.40;91.00;;;;;;5062951;28;20059;-71
2023/12/25 11:53:03;;;;;;;0.00;0.00;;;10.30;91.20;;;;;;5066507;28;21330;-71
2023/12/25 11:55:30;;;;;;;0.05;0.05;;;10.30;91.40;;;;;;5063926;28;20068;-70
2023/12/25 11:57:56;;;;;;;0.10;0.10;;;10.30;91.60;;;;;;5061284;28;20517;-70
2023/12/25 12:00:32;;;;;;;0.00;0.00;;;10.30;91.60;;;;;;5063633;28;20032;-71
2023/12/25 12:02:58;;;;;;;0.10;0.10;;;10.30;91.70;;;;;;5059860;28;20047;-70
2023/12/25 12:05:25;;;;;;;0.00;0.00;;;10.30;91.90;;;;;;5047680;28;20110;-70
2023/12/25 12:07:50;;;;;;;0.00;0.00;;;10.30;91.80;;;;;;5062859;28;20071;-71
2023/12/25 12:10:17;;;;;;;0.28;0.28;;;10.20;91.70;;;;;;5060313;28;20490;-70
2023/12/25 12:12:43;;;;;;;0.00;0.00;;;10.10;91.80;;;;;;5063507;28;20052;-71
2023/12/25 12:15:10;;;;;;;1.15;0.88;;;10.20;92.00;;;;;;5058359;28;20041;-70
2023/12/25 12:17:35;;;;;;;0.00;0.00;;;10.20;92.00;;;;;;5063870;28;20487;-70
2023/12/25 12:20:05;;;;;;;0.00;0.00;;;10.10;91.90;;;;;;5062565;28;20041;-70
2023/12/25 12:22:34;;;;;;;0.30;0.30;;;10.10;92.00;;;;;;5063161;28;20175;-70
2023/12/25 12:25:17;;;;;;;0.38;0.38;;;10.10;92.10;;;;;;5066712;28;20040;-70
2023/12/25 12:27:43;;;;;;;0.00;0.00;;;10.10;92.20;;;;;;5066792;28;20378;-70
2023/12/25 12:30:09;;;;;;;0.00;0.00;;;10.10;92.10;;;;;;5067486;28;20097;-70
2023/12/25 12:32:36;;;;;;;0.00;0.00;;;10.10;92.10;;;;;;5064985;28;20085;-71
2023/12/25 12:35:07;;;;;;;0.00;0.00;;;10.10;92.10;;;;;;5067056;28;20177;-70
2023/12/25 12:37:33;;;;;;;0.00;0.00;;;10.20;92.10;;;;;;5060936;28;20545;-70
2023/12/25 12:40:06;;;;;;;0.40;0.40;;;10.10;92.00;;;;;;5064746;28;20028;-70
2023/12/25 12:42:33;;;;;;;0.63;0.63;;;10.10;91.90;;;;;;5059601;28;20097;-70
2023/12/25 12:45:03;;;;;;;0.00;0.00;;;10.10;92.00;;;;;;5060634;28;20040;-69
2023/12/25 12:47:31;;;;;;;0.00;0.00;;;10.20;91.90;;;;;;5062098;28;20584;-70
2023/12/25 12:49:57;;;;;;;0.00;0.00;;;10.20;91.90;;;;;;5067707;28;20103;-69
2023/12/25 12:52:23;;;;;;;0.00;0.00;;;10.20;91.80;;;;;;5065513;28;20040;-71
2023/12/25 12:54:48;;;;;;;0.25;0.17;;;10.20;92.00;;;;;;5066568;28;20055;-70
2023/12/25 12:57:14;;;;;;;0.00;0.00;;;10.20;92.00;;;;;;5064061;28;20483;-70